Stations météo

Publicité
Besancon, France (7288): Température de l'air & dewpoint: 16.07.2018 11:00:00 - 22.07.2018 11:00:00 (CEST)Besancon, France (7288): Température de l'air 5cm: 16.07.2018 11:00:00 - 22.07.2018 11:00:00 (CEST)Besancon, France (7288): Température de l'air -20cm & Température de l'air -100cm: 16.07.2018 11:00:00 - 22.07.2018 11:00:00 (CEST)Besancon, France (7288): Vitesse du vent & gusts: 16.07.2018 11:00:00 - 22.07.2018 11:00:00 (CEST)Besancon, France (7288): Direction du vent: 16.07.2018 11:00:00 - 22.07.2018 11:00:00 (CEST)Besancon, France (7288): reduced air pressure: 16.07.2018 11:00:00 - 22.07.2018 11:00:00 (CEST)Besancon, France (7288): Ensoleillement: 16.07.2018 11:00:00 - 22.07.2018 11:00:00 (CEST)Besancon, France (7288): Quantités de précipitations: 16.07.2018 11:00:00 - 22.07.2018 11:00:00 (CEST)
Date & Time tt [°C] td [°C] tt 5cm [°C] tt -20cm [°C] tt -100cm [°C] ff [km/h] ff [knt] fx [km/h] fx [knt] dd ppp [hPa] sd [min] rr [mm]
22.07.2018 11:00:00 - - - - - - - - - - - - -
22.07.2018 10:00:00 21,3 13,5 23,7 22,3 19,8 5 3 10 6 NNW 1015,3 60 0,0
22.07.2018 09:00:00 18,3 13,4 14,2 22,4 19,8 0 0 5 3 N 1015,9 60 0,0
22.07.2018 08:00:00 14,9 14,3 11,1 22,6 19,9 0 0 3 2 N 1016,1 60 0,0
22.07.2018 07:00:00 13,5 13,2 9,5 22,7 19,8 0 0 3 2 N 1015,9 3 0,0
22.07.2018 06:00:00 13,4 12,6 9,5 22,9 19,8 0 0 4 2 N 1015,8 0 0,0
22.07.2018 05:00:00 14,2 13,6 10,0 23,0 19,8 0 0 5 3 N 1015,5 0 0,0
22.07.2018 04:00:00 14,5 13,5 10,4 23,2 19,9 0 0 3 2 N 1015,2 0 0,0
22.07.2018 03:00:00 15,4 13,9 11,2 23,3 19,8 0 0 3 2 N 1015,1 0 0,0
22.07.2018 02:00:00 16,4 14,2 11,9 23,4 19,8 0 0 3 2 N 1015,1 0 0,0
22.07.2018 01:00:00 18,0 14,5 13,6 23,5 19,9 0 0 3 2 N 1014,8 0 0,0
22.07.2018 00:00:00 19,1 14,6 16,9 23,5 19,8 0 0 4 2 N 1014,5 0 0,0
21.07.2018 23:00:00 19,0 14,5 14,8 23,6 19,8 3 1 6 3 NNE 1014,5 0 0,0
21.07.2018 22:00:00 20,0 13,0 15,2 23,6 19,8 0 0 3 1 N 1013,8 0 0,0
21.07.2018 21:00:00 22,5 12,7 19,5 23,6 19,8 0 0 4 2 N 1013,0 44 0,0
21.07.2018 20:00:00 23,2 13,1 23,5 23,5 19,8 3 1 11 6 WNW 1012,7 7 0,0
21.07.2018 19:00:00 24,8 12,1 29,5 23,4 19,8 6 3 17 9 NNW 1012,4 57 0,0
21.07.2018 18:00:00 24,8 12,4 32,1 23,3 19,8 5 3 13 7 NNW 1012,5 47 0,0
21.07.2018 17:00:00 23,6 12,6 24,9 23,3 19,8 5 3 11 6 WSW 1013,0 9 0,0
21.07.2018 16:00:00 22,3 13,4 24,9 23,2 19,8 6 3 13 7 WNW 1013,3 5 0,0
21.07.2018 15:00:00 23,5 13,1 26,0 23,1 19,8 6 3 12 7 SW 1013,1 28 0,0
21.07.2018 14:00:00 21,7 14,8 26,6 23,0 19,8 6 3 13 7 W 1013,7 7 0,0
21.07.2018 13:00:00 21,6 15,4 24,4 23,0 19,8 7 4 14 7 W 1013,8 41 0,0
21.07.2018 12:00:00 19,3 15,2 19,5 23,0 19,8 4 2 12 7 WNW 1014,3 0 0,0
21.07.2018 11:00:00 18,6 16,2 18,9 23,1 19,8 6 3 14 8 WNW 1014,1 0 0,0
21.07.2018 10:00:00 18,6 15,8 18,6 23,2 19,8 5 3 14 7 SSW 1013,7 2 0,0
21.07.2018 09:00:00 17,5 16,0 17,7 23,3 19,8 7 4 15 8 WSW 1013,6 0 0,0
21.07.2018 08:00:00 17,4 15,7 16,8 23,4 19,8 6 3 15 8 SW 1013,1 0 0,0
21.07.2018 07:00:00 17,1 15,8 16,4 23,5 19,8 4 2 14 8 SSW 1013,0 0 0,0
21.07.2018 06:00:00 17,0 15,9 15,6 23,6 19,8 3 1 10 6 SW 1012,7 0 0,0
21.07.2018 05:00:00 17,0 16,2 15,2 23,7 19,7 4 2 9 5 SW 1012,9 0 0,2
21.07.2018 04:00:00 17,1 16,1 16,2 23,9 19,8 2 1 8 4 W 1013,1 0 0,0
21.07.2018 03:00:00 17,2 16,4 16,1 24,0 19,7 2 1 6 4 WNW 1012,8 0 0,0
21.07.2018 02:00:00 17,7 16,7 16,9 24,1 19,7 2 1 6 4 WSW 1013,2 0 0,8
21.07.2018 01:00:00 17,5 16,4 16,7 24,2 19,7 0 0 9 5 N 1013,7 0 0,2
21.07.2018 00:00:00 17,6 15,9 16,5 24,3 19,7 0 0 14 8 N 1014,2 0 4,9
20.07.2018 23:00:00 20,9 14,3 17,7 24,4 19,7 10 6 24 13 WNW 1013,5 0 0,0
20.07.2018 22:00:00 21,0 15,8 17,5 24,4 19,7 2 1 6 3 S 1012,0 0 0,0
20.07.2018 21:00:00 22,2 15,3 19,9 24,4 19,7 3 1 9 5 SSE 1011,3 0 0,0
20.07.2018 20:00:00 23,2 14,7 20,2 24,4 19,7 3 2 16 8 WSW 1011,5 0 0,0
20.07.2018 19:00:00 25,1 15,1 20,7 24,3 19,7 5 3 14 8 SSW 1011,4 0 0,0
20.07.2018 18:00:00 27,0 13,0 28,7 24,1 19,7 5 3 12 7 W 1011,1 0 0,0
20.07.2018 17:00:00 27,7 12,5 33,4 24,0 19,7 5 3 13 7 SSW 1011,0 13 0,0
20.07.2018 16:00:00 27,4 12,6 30,7 23,8 19,7 5 3 24 13 WSW 1011,8 0 0,0
20.07.2018 15:00:00 27,9 12,7 36,5 23,6 19,7 10 6 22 12 W 1011,7 49 0,0
20.07.2018 14:00:00 27,9 13,8 43,1 23,5 19,7 6 3 20 11 SSW 1012,2 60 0,0
20.07.2018 13:00:00 26,3 13,1 29,2 23,3 19,7 6 4 13 7 WSW 1013,1 33 0,0
20.07.2018 12:00:00 24,1 13,6 28,1 23,3 19,7 2 1 19 10 SSW 1013,5 21 0,0
20.07.2018 11:00:00 24,5 13,1 32,6 23,3 19,7 10 5 24 13 WSW 1013,8 60 0,0
20.07.2018 10:00:00 23,4 15,4 28,7 23,4 19,7 10 5 29 16 WSW 1014,1 60 0,0
20.07.2018 09:00:00 22,9 13,9 20,9 23,4 19,7 8 5 22 12 SW 1013,5 39 0,0
20.07.2018 08:00:00 21,2 11,8 15,3 23,5 19,7 2 1 5 3 SW 1013,3 35 0,0
20.07.2018 07:00:00 19,8 11,0 14,9 23,7 19,7 0 0 4 2 N 1013,3 2 0,0
20.07.2018 06:00:00 20,2 10,9 15,0 23,8 19,7 0 0 5 3 N 1013,0 0 0,0
20.07.2018 05:00:00 19,2 10,7 13,4 24,0 19,7 2 1 6 4 N 1013,3 0 0,0
20.07.2018 04:00:00 18,9 11,2 13,3 24,1 19,7 0 0 6 3 N 1013,6 0 0,0
20.07.2018 03:00:00 19,3 11,6 13,7 24,2 19,7 2 1 5 3 N 1013,8 0 0,0
20.07.2018 02:00:00 19,8 12,1 14,3 24,3 19,7 2 1 4 2 NNE 1014,2 0 0,0
20.07.2018 01:00:00 20,5 12,2 15,0 24,4 19,6 0 0 4 2 N 1014,3 0 0,0
20.07.2018 00:00:00 21,6 12,2 15,4 24,4 19,6 0 0 8 5 N 1014,2 0 0,0
19.07.2018 23:00:00 22,6 11,9 16,4 24,5 19,6 2 1 11 6 NNE 1013,7 0 0,0
19.07.2018 22:00:00 24,3 12,6 18,1 24,5 19,6 3 2 12 7 NNE 1013,4 0 0,0
19.07.2018 21:00:00 27,5 12,3 24,8 24,4 19,6 7 4 20 11 N 1012,9 32 0,0
19.07.2018 20:00:00 29,2 11,3 29,6 24,3 19,6 14 8 27 14 N 1012,3 55 0,0
19.07.2018 19:00:00 30,4 11,4 34,4 24,2 19,6 13 7 28 15 N 1012,2 60 0,0
19.07.2018 18:00:00 30,9 10,3 36,7 24,0 19,6 10 5 23 12 NNW 1012,3 54 0,0
19.07.2018 17:00:00 30,9 10,3 37,5 23,7 19,6 11 6 25 13 N 1012,6 49 0,0
19.07.2018 16:00:00 31,0 10,9 41,6 23,5 19,6 11 6 26 14 N 1013,0 56 0,0
19.07.2018 15:00:00 30,4 10,9 43,8 23,2 19,6 7 4 21 11 NNE 1013,5 60 0,0
19.07.2018 14:00:00 30,2 11,2 47,1 23,0 19,6 10 6 24 13 N 1013,7 60 0,0
19.07.2018 13:00:00 29,5 11,5 45,2 22,9 19,6 9 5 26 14 NNE 1014,3 60 0,0
19.07.2018 12:00:00 28,2 10,8 43,7 22,9 19,6 8 4 23 13 NNE 1014,6 60 0,0
19.07.2018 11:00:00 27,6 12,4 37,0 22,9 19,6 4 2 16 9 NE 1014,8 60 0,0
19.07.2018 10:00:00 25,6 11,7 30,5 22,9 19,6 5 3 11 6 NNE 1015,1 60 0,0
19.07.2018 09:00:00 23,9 12,5 18,3 23,0 19,6 3 2 9 5 ENE 1015,3 60 0,0
19.07.2018 08:00:00 20,5 12,5 15,3 23,1 19,6 3 1 9 5 E 1015,6 60 0,0
19.07.2018 07:00:00 18,9 11,9 13,3 23,3 19,6 0 0 8 4 N 1015,6 6 0,0
19.07.2018 06:00:00 19,2 11,7 13,4 23,4 19,6 0 0 11 6 N 1015,6 0 0,0
19.07.2018 05:00:00 19,1 11,9 13,7 23,5 19,6 0 0 8 4 N 1015,4 0 0,0
19.07.2018 04:00:00 18,8 12,8 13,3 23,6 19,6 0 0 4 2 N 1015,4 0 0,0
19.07.2018 03:00:00 19,0 13,0 13,6 23,8 19,6 0 0 5 3 N 1015,7 0 0,0
19.07.2018 02:00:00 19,2 12,9 14,2 23,9 19,6 0 0 4 2 N 1015,8 0 0,0
19.07.2018 01:00:00 19,9 12,2 14,5 24,0 19,6 0 0 4 2 N 1015,5 0 0,0
19.07.2018 00:00:00 20,5 11,1 14,7 24,0 19,6 0 0 4 2 N 1015,1 0 0,0
18.07.2018 23:00:00 22,1 9,9 15,5 24,1 19,6 0 0 3 2 N 1014,6 0 0,0
18.07.2018 22:00:00 23,4 9,8 16,8 24,1 19,6 0 0 8 5 N 1014,1 0 0,0
18.07.2018 21:00:00 26,0 10,2 21,7 24,0 19,6 4 2 15 8 N 1013,7 6 0,0
18.07.2018 20:00:00 28,1 10,3 28,2 23,9 19,6 9 5 27 15 NNW 1013,2 54 0,0
18.07.2018 19:00:00 29,0 10,6 33,5 23,8 19,6 11 6 23 13 NNW 1013,0 60 0,0
18.07.2018 18:00:00 29,3 10,9 38,9 23,5 19,6 9 5 22 12 N 1013,3 60 0,0
18.07.2018 17:00:00 29,6 10,7 43,1 23,3 19,6 9 5 23 13 NNW 1013,6 60 0,0
18.07.2018 16:00:00 29,3 10,9 43,3 23,1 19,6 8 4 22 12 NNW 1014,3 60 0,0
18.07.2018 15:00:00 28,6 11,2 45,4 22,8 19,6 9 5 22 12 N 1014,8 60 0,0
18.07.2018 14:00:00 28,0 10,2 46,5 22,6 19,6 6 4 18 10 N 1015,2 60 0,0
18.07.2018 13:00:00 27,5 11,9 45,6 22,5 19,6 4 2 17 9 NNE 1015,7 60 0,0
18.07.2018 12:00:00 26,0 11,7 42,5 22,4 19,6 9 5 21 11 NNW 1016,3 60 0,0
18.07.2018 11:00:00 24,9 12,1 37,0 22,4 19,6 5 3 13 7 NNW 1016,6 60 0,0
18.07.2018 10:00:00 23,3 12,9 28,8 22,5 19,6 3 2 8 5 WNW 1017,2 60 0,0
18.07.2018 09:00:00 20,9 12,8 14,0 22,6 19,6 0 0 6 4 N 1017,3 60 0,0
18.07.2018 08:00:00 16,1 13,2 11,4 22,8 19,6 0 0 2 1 N 1017,9 60 0,0
18.07.2018 07:00:00 14,0 12,6 9,6 23,0 19,6 2 1 4 2 N 1018,1 6 0,0
18.07.2018 06:00:00 14,1 12,3 9,6 23,1 19,6 2 1 4 2 NE 1018,1 0 0,0
18.07.2018 05:00:00 15,0 12,7 10,2 23,3 19,6 0 0 4 2 N 1018,0 0 0,0
18.07.2018 04:00:00 16,0 12,9 10,9 23,4 19,6 0 0 3 2 N 1018,1 0 0,0
18.07.2018 03:00:00 17,0 12,9 12,1 23,5 19,6 0 0 6 3 N 1018,2 0 0,0
18.07.2018 02:00:00 17,8 13,3 12,7 23,6 19,5 0 0 2 1 N 1018,2 0 0,0
18.07.2018 01:00:00 18,6 12,6 13,2 23,7 19,6 0 0 0 0 N 1018,2 0 0,0
18.07.2018 00:00:00 20,2 12,4 14,0 23,8 19,6 0 0 6 3 N 1018,0 0 0,0
17.07.2018 23:00:00 21,8 12,4 15,9 23,8 19,5 4 2 14 8 W 1017,6 0 0,0
17.07.2018 22:00:00 22,8 13,8 17,3 23,8 19,5 4 2 10 5 WNW 1016,9 0 0,0
17.07.2018 21:00:00 25,1 13,6 21,5 23,8 19,6 4 2 13 7 WSW 1016,1 35 0,0
17.07.2018 20:00:00 26,5 12,5 27,8 23,7 19,6 4 2 10 5 WSW 1015,6 60 0,0
17.07.2018 19:00:00 26,8 13,9 27,3 23,6 19,6 4 2 19 10 W 1015,6 30 0,0
17.07.2018 18:00:00 24,9 13,8 27,4 23,4 19,6 10 6 31 17 W 1016,0 13 0,0
17.07.2018 17:00:00 26,6 14,0 29,0 23,2 19,6 10 5 23 13 W 1015,8 26 0,0
17.07.2018 16:00:00 27,4 13,0 34,2 22,9 19,5 5 3 22 12 NW 1015,4 41 0,0
17.07.2018 15:00:00 27,9 12,7 41,6 22,7 19,5 8 4 22 12 W 1015,5 60 0,0
17.07.2018 14:00:00 26,5 14,6 39,6 22,6 19,5 9 5 23 12 WSW 1016,2 55 0,0
17.07.2018 13:00:00 25,8 14,6 34,0 22,5 19,6 9 5 21 11 W 1016,7 33 0,0
17.07.2018 12:00:00 24,0 15,2 29,8 22,4 19,5 8 5 19 10 SW 1016,9 25 0,0
17.07.2018 11:00:00 22,8 14,9 26,7 22,5 19,5 8 4 22 12 WSW 1016,9 36 0,0
17.07.2018 10:00:00 20,7 15,3 20,7 22,5 19,5 9 5 22 12 SW 1017,0 9 0,0
17.07.2018 09:00:00 19,5 15,2 20,9 22,6 19,5 10 5 23 12 SW 1016,9 13 0,0
17.07.2018 08:00:00 19,6 14,8 16,3 22,7 19,6 9 5 20 11 SW 1016,3 58 0,0
17.07.2018 07:00:00 18,0 14,5 12,9 22,8 19,5 9 5 17 9 SW 1016,3 17 0,0
17.07.2018 06:00:00 16,4 14,1 11,7 23,0 19,5 0 0 5 3 N 1015,8 0 0,0
17.07.2018 05:00:00 17,4 13,9 12,3 23,1 19,5 0 0 7 4 N 1015,3 0 0,0
17.07.2018 04:00:00 18,1 13,8 12,6 23,2 19,5 3 2 6 3 SSW 1014,7 0 0,0
17.07.2018 03:00:00 18,9 13,5 13,9 23,3 19,5 0 0 11 6 N 1014,6 0 0,0
17.07.2018 02:00:00 19,6 13,1 14,4 23,4 19,5 3 2 10 6 SSW 1014,4 0 0,0
17.07.2018 01:00:00 20,9 13,6 17,9 23,4 19,5 3 2 19 10 SSW 1013,9 0 0,0
17.07.2018 00:00:00 21,9 12,7 15,1 23,5 19,5 7 4 16 9 SW 1013,5 0 0,0
16.07.2018 23:00:00 21,8 10,9 15,1 23,5 19,5 0 0 4 2 N 1012,7 0 0,0
16.07.2018 22:00:00 23,3 10,7 16,0 23,5 19,5 2 1 9 5 N 1011,9 0 0,0
16.07.2018 21:00:00 26,2 9,9 20,9 23,5 19,5 5 3 15 8 N 1010,6 17 0,0
16.07.2018 20:00:00 28,8 7,9 29,2 23,3 19,5 5 3 21 11 NNW 1009,7 56 0,0
16.07.2018 19:00:00 29,3 7,2 33,5 23,2 19,5 8 5 26 14 N 1009,2 60 0,0
16.07.2018 18:00:00 29,3 7,8 37,6 23,0 19,5 11 6 28 15 NNW 1009,1 60 0,0
16.07.2018 17:00:00 29,4 7,9 41,5 22,8 19,5 10 6 26 14 NNW 1009,1 60 0,0
16.07.2018 16:00:00 28,9 8,6 38,0 22,5 19,5 8 4 24 13 N 1009,7 50 0,0
16.07.2018 15:00:00 28,9 9,6 46,7 22,3 19,5 7 4 21 11 NW 1010,0 60 0,0
16.07.2018 14:00:00 28,0 10,2 46,7 22,1 19,5 8 4 22 12 NNE 1010,8 60 0,0
16.07.2018 13:00:00 27,6 10,8 44,2 21,9 19,5 9 5 19 10 N 1011,2 60 0,0
16.07.2018 12:00:00 26,7 12,7 41,0 21,9 19,5 4 2 14 8 NE 1011,9 60 0,0
16.07.2018 11:00:00 25,1 13,3 34,2 21,9 19,5 3 2 11 6 NNE 1012,4 60 0,0

tt = Température de l'air
td = dewpoint
tt 5cm = Température de l'air 5cm
tt -20cm = Température de l'air -20cm
tt -100cm = Température de l'air -100cm
ff = Vitesse du vent
fx = gusts
dd = Direction du vent
ppp = reduced air pressure
sd = Ensoleillement
rr = Quantités de précipitations

stations d'obs. à proximité